This is the latest recevied weather packets stored in our database for station/object G6FJI-13. If no packets are shown the sender has not sent any weather packets the latest 10 day(s).
| Time | Temp. | Humidity | Pressure | Rain* | Wind** | Luminosity | Snow |
|---|---|---|---|---|---|---|---|
| 1778211845 | 7.78° C | 91% | 1018.7 hPa | 0 mm | - | 0 W/m² | - |
| 1778197923 | 9.44° C | 84% | 1019 hPa | 0 mm | - | 0 W/m² | - |
| 1778194802 | 10.56° C | 81% | 1019.3 hPa | 0 mm | - | 0 W/m² | - |
| 1778191146 | 11.11° C | 76% | 1019.3 hPa | 0 mm | - | 0 W/m² | - |
| 1778182690 | 13.33° C | 68% | 1018 hPa | 0 mm | - | 1 W/m² | - |
| 1778176694 | 14.44° C | 57% | 1017.6 hPa | 0 mm | - | 20 W/m² | - |
| 1778175495 | 15° C | 57% | 1017.7 hPa | 0 mm | - | 31 W/m² | - |
| 1778173020 | 15.56° C | 44% | 1017.5 hPa | 0 mm | - | 77 W/m² | - |
| 1778171837 | 16.11° C | 47% | 1017.4 hPa | 0 mm | - | 102 W/m² | - |
| 1778168172 | 15.56° C | 46% | 1018 hPa | 0 mm | - | 68 W/m² | - |
| 1778167576 | 15.56° C | 45% | 1017.7 hPa | 0 mm | - | 84 W/m² | - |
| 1778162719 | 16.11° C | 44% | 1018.3 hPa | 0 mm | - | 170 W/m² | - |
| 1778160177 | 15° C | 48% | 1018.2 hPa | 0 mm | - | 165 W/m² | - |
| 1778158363 | 15.56° C | 49% | 1018.6 hPa | 0 mm | - | 564 W/m² | - |
| 1778155944 | 16.11° C | 48% | 1018.8 hPa | 0 mm | - | 710 W/m² | - |
| 1778148105 | 13.33° C | 71% | 1019.3 hPa | 0 mm | - | 501 W/m² | - |
| 1778144489 | 10° C | 95% | 1019.6 hPa | 0 mm | - | 151 W/m² | - |
| 1778142090 | 7.22° C | 99% | 1019.8 hPa | 0 mm | - | 170 W/m² | - |
| 1778138493 | 5.56° C | 99% | 1019.4 hPa | 0 mm | - | 66 W/m² | - |
| 1778128364 | 5° C | 97% | 1018.9 hPa | 0 mm | - | 2 W/m² | - |
| 1778125945 | 5° C | 97% | 1018.9 hPa | 0 mm | - | 0 W/m² | - |
| 1778125301 | 4.44° C | 97% | 1019 hPa | 0 mm | - | 0 W/m² | - |
| 1778122904 | 2.78° C | 96% | 1018.7 hPa | 0 mm | - | 0 W/m² | - |
| 1778119949 | 3.33° C | 96% | 1018.8 hPa | 0 mm | - | 0 W/m² | - |
| 1778113729 | 5° C | 94% | 1018.8 hPa | 0 mm | - | 0 W/m² | - |
* Rain latest hour (hover to see other rain measurements)
** Current wind speed in m/s (hover to see current wind gust speed)